sensor_id;sensor_type;location;lat;lon;timestamp;temperature;humidity
30889;DHT22;51092;50.874;7.024;2022-10-16T00:00:25;15.70;99.90
30889;DHT22;51092;50.874;7.024;2022-10-16T00:01:28;15.70;99.90
30889;DHT22;51092;50.874;7.024;2022-10-16T00:02:32;15.70;99.90
30889;DHT22;51092;50.874;7.024;2022-10-16T00:03:34;15.70;99.90
30889;DHT22;51092;50.874;7.024;2022-10-16T00:04:36;15.70;99.90
30889;DHT22;51092;50.874;7.024;2022-10-16T00:05:39;15.80;99.90
30889;DHT22;51092;50.874;7.024;2022-10-16T00:06:42;15.80;99.90
30889;DHT22;51092;50.874;7.024;2022-10-16T00:07:44;15.80;99.90
30889;DHT22;51092;50.874;7.024;2022-10-16T00:08:47;15.80;99.90
30889;DHT22;51092;50.874;7.024;2022-10-16T00:09:48;15.90;99.90
30889;DHT22;51092;50.874;7.024;2022-10-16T00:10:51;15.80;99.90
30889;DHT22;51092;50.874;7.024;2022-10-16T00:11:53;15.80;99.90
30889;DHT22;51092;50.874;7.024;2022-10-16T00:12:55;15.90;99.90
30889;DHT22;51092;50.874;7.024;2022-10-16T00:13:59;15.90;99.90
30889;DHT22;51092;50.874;7.024;2022-10-16T00:15:02;15.90;99.90
30889;DHT22;51092;50.874;7.024;2022-10-16T00:16:03;15.90;99.90
30889;DHT22;51092;50.874;7.024;2022-10-16T00:17:06;15.90;99.90
30889;DHT22;51092;50.874;7.024;2022-10-16T00:18:08;15.90;99.90
30889;DHT22;51092;50.874;7.024;2022-10-16T00:19:10;15.90;99.90
30889;DHT22;51092;50.874;7.024;2022-10-16T00:20:13;15.90;99.90
30889;DHT22;51092;50.874;7.024;2022-10-16T00:21:18;15.90;99.90
30889;DHT22;51092;50.874;7.024;2022-10-16T00:22:21;15.90;99.90
30889;DHT22;51092;50.874;7.024;2022-10-16T00:23:22;15.90;99.90
30889;DHT22;51092;50.874;7.024;2022-10-16T00:24:25;15.90;99.90
30889;DHT22;51092;50.874;7.024;2022-10-16T00:25:26;15.90;99.90
30889;DHT22;51092;50.874;7.024;2022-10-16T00:26:30;15.90;99.90
30889;DHT22;51092;50.874;7.024;2022-10-16T00:27:33;15.90;99.90
30889;DHT22;51092;50.874;7.024;2022-10-16T00:28:35;15.80;99.90
30889;DHT22;51092;50.874;7.024;2022-10-16T00:29:37;15.90;99.90
30889;DHT22;51092;50.874;7.024;2022-10-16T00:30:40;15.80;99.90
30889;DHT22;51092;50.874;7.024;2022-10-16T00:31:41;15.80;99.90
30889;DHT22;51092;50.874;7.024;2022-10-16T00:32:44;15.90;99.90
30889;DHT22;51092;50.874;7.024;2022-10-16T00:33:47;15.90;99.90
30889;DHT22;51092;50.874;7.024;2022-10-16T00:34:49;15.90;99.90
30889;DHT22;51092;50.874;7.024;2022-10-16T00:35:51;15.90;99.90
30889;DHT22;51092;50.874;7.024;2022-10-16T00:36:53;15.90;99.90
30889;DHT22;51092;50.874;7.024;2022-10-16T00:37:55;15.90;99.90
30889;DHT22;51092;50.874;7.024;2022-10-16T00:38:58;15.90;99.90
30889;DHT22;51092;50.874;7.024;2022-10-16T00:40:01;15.90;99.90
30889;DHT22;51092;50.874;7.024;2022-10-16T00:41:05;15.90;99.90
30889;DHT22;51092;50.874;7.024;2022-10-16T00:42:06;15.90;99.90
30889;DHT22;51092;50.874;7.024;2022-10-16T00:43:13;15.80;99.90
30889;DHT22;51092;50.874;7.024;2022-10-16T00:44:42;15.90;99.90
30889;DHT22;51092;50.874;7.024;2022-10-16T00:45:45;15.90;99.90
30889;DHT22;51092;50.874;7.024;2022-10-16T00:46:46;15.90;99.90
30889;DHT22;51092;50.874;7.024;2022-10-16T00:47:50;15.90;99.90
30889;DHT22;51092;50.874;7.024;2022-10-16T00:48:57;16.00;99.90
30889;DHT22;51092;50.874;7.024;2022-10-16T00:50:06;15.90;99.90
30889;DHT22;51092;50.874;7.024;2022-10-16T00:51:08;15.90;99.90
30889;DHT22;51092;50.874;7.024;2022-10-16T00:52:10;15.90;99.90
30889;DHT22;51092;50.874;7.024;2022-10-16T00:53:11;15.80;99.90
30889;DHT22;51092;50.874;7.024;2022-10-16T00:54:16;15.80;99.90
30889;DHT22;51092;50.874;7.024;2022-10-16T00:55:19;15.80;99.90
30889;DHT22;51092;50.874;7.024;2022-10-16T00:56:21;15.80;99.90
30889;DHT22;51092;50.874;7.024;2022-10-16T00:57:24;15.80;99.90
30889;DHT22;51092;50.874;7.024;2022-10-16T00:58:27;15.80;99.90
30889;DHT22;51092;50.874;7.024;2022-10-16T00:59:30;15.80;99.90
30889;DHT22;51092;50.874;7.024;2022-10-16T01:00:33;15.80;99.90
30889;DHT22;51092;50.874;7.024;2022-10-16T01:01:34;15.80;99.90
30889;DHT22;51092;50.874;7.024;2022-10-16T01:02:37;15.80;99.90
30889;DHT22;51092;50.874;7.024;2022-10-16T01:03:38;15.80;99.90
30889;DHT22;51092;50.874;7.024;2022-10-16T01:04:46;15.80;99.90
30889;DHT22;51092;50.874;7.024;2022-10-16T01:05:54;15.80;99.90
30889;DHT22;51092;50.874;7.024;2022-10-16T01:07:03;15.80;99.90
30889;DHT22;51092;50.874;7.024;2022-10-16T01:08:12;15.80;99.90
30889;DHT22;51092;50.874;7.024;2022-10-16T01:09:19;15.90;99.90
30889;DHT22;51092;50.874;7.024;2022-10-16T01:10:27;15.80;99.90
30889;DHT22;51092;50.874;7.024;2022-10-16T01:11:38;15.80;99.90
30889;DHT22;51092;50.874;7.024;2022-10-16T01:12:42;15.80;99.90
30889;DHT22;51092;50.874;7.024;2022-10-16T01:13:50;15.80;99.90
30889;DHT22;51092;50.874;7.024;2022-10-16T01:14:58;15.80;99.90
30889;DHT22;51092;50.874;7.024;2022-10-16T01:16:06;15.90;99.90
30889;DHT22;51092;50.874;7.024;2022-10-16T01:17:12;15.80;99.90
30889;DHT22;51092;50.874;7.024;2022-10-16T01:18:18;15.80;99.90
30889;DHT22;51092;50.874;7.024;2022-10-16T01:19:41;15.80;99.90
30889;DHT22;51092;50.874;7.024;2022-10-16T01:20:51;15.80;99.90
30889;DHT22;51092;50.874;7.024;2022-10-16T01:21:56;15.80;99.90
30889;DHT22;51092;50.874;7.024;2022-10-16T01:23:06;15.80;99.90
30889;DHT22;51092;50.874;7.024;2022-10-16T01:24:17;15.70;99.90
30889;DHT22;51092;50.874;7.024;2022-10-16T01:25:35;15.70;99.90
30889;DHT22;51092;50.874;7.024;2022-10-16T01:26:56;15.70;99.90
30889;DHT22;51092;50.874;7.024;2022-10-16T01:27:59;15.60;99.90
30889;DHT22;51092;50.874;7.024;2022-10-16T01:29:08;15.50;99.90
30889;DHT22;51092;50.874;7.024;2022-10-16T01:30:13;15.50;99.90
30889;DHT22;51092;50.874;7.024;2022-10-16T01:31:19;15.50;99.90
30889;DHT22;51092;50.874;7.024;2022-10-16T01:32:30;15.50;99.90
30889;DHT22;51092;50.874;7.024;2022-10-16T01:33:39;15.50;99.90
30889;DHT22;51092;50.874;7.024;2022-10-16T01:34:47;15.40;99.90
30889;DHT22;51092;50.874;7.024;2022-10-16T01:35:53;15.40;99.90
30889;DHT22;51092;50.874;7.024;2022-10-16T01:37:00;15.50;99.90
30889;DHT22;51092;50.874;7.024;2022-10-16T01:38:07;15.50;99.90
30889;DHT22;51092;50.874;7.024;2022-10-16T01:39:10;15.50;99.90
30889;DHT22;51092;50.874;7.024;2022-10-16T01:40:16;15.50;99.90
30889;DHT22;51092;50.874;7.024;2022-10-16T01:41:24;15.50;99.90
30889;DHT22;51092;50.874;7.024;2022-10-16T01:42:37;15.40;99.90
30889;DHT22;51092;50.874;7.024;2022-10-16T01:43:46;15.40;99.90
30889;DHT22;51092;50.874;7.024;2022-10-16T01:44:51;15.40;99.90
30889;DHT22;51092;50.874;7.024;2022-10-16T01:45:54;15.40;99.90
30889;DHT22;51092;50.874;7.024;2022-10-16T01:46:57;15.30;99.90
30889;DHT22;51092;50.874;7.024;2022-10-16T01:48:01;15.20;99.90
30889;DHT22;51092;50.874;7.024;2022-10-16T01:49:05;15.30;99.90
30889;DHT22;51092;50.874;7.024;2022-10-16T01:50:08;15.20;99.90
30889;DHT22;51092;50.874;7.024;2022-10-16T01:51:12;15.20;99.90
30889;DHT22;51092;50.874;7.024;2022-10-16T01:52:18;15.20;99.90
30889;DHT22;51092;50.874;7.024;2022-10-16T01:53:22;15.20;99.90
30889;DHT22;51092;50.874;7.024;2022-10-16T01:54:27;15.10;99.90
30889;DHT22;51092;50.874;7.024;2022-10-16T01:55:32;15.10;99.90
30889;DHT22;51092;50.874;7.024;2022-10-16T01:56:37;15.10;99.90
30889;DHT22;51092;50.874;7.024;2022-10-16T01:57:44;15.10;99.90
30889;DHT22;51092;50.874;7.024;2022-10-16T01:58:51;15.10;99.90
30889;DHT22;51092;50.874;7.024;2022-10-16T01:59:57;15.10;99.90
30889;DHT22;51092;50.874;7.024;2022-10-16T02:01:01;15.10;99.90
30889;DHT22;51092;50.874;7.024;2022-10-16T02:02:07;15.10;99.90
30889;DHT22;51092;50.874;7.024;2022-10-16T02:03:11;15.20;99.90
30889;DHT22;51092;50.874;7.024;2022-10-16T02:04:15;15.10;99.90
30889;DHT22;51092;50.874;7.024;2022-10-16T02:05:24;15.10;99.90
30889;DHT22;51092;50.874;7.024;2022-10-16T02:06:27;15.20;99.90
30889;DHT22;51092;50.874;7.024;2022-10-16T02:07:30;15.20;99.90
30889;DHT22;51092;50.874;7.024;2022-10-16T02:08:33;15.20;99.90
30889;DHT22;51092;50.874;7.024;2022-10-16T02:09:36;15.10;99.90
30889;DHT22;51092;50.874;7.024;2022-10-16T02:10:38;15.10;99.90
30889;DHT22;51092;50.874;7.024;2022-10-16T02:11:41;15.20;99.90
30889;DHT22;51092;50.874;7.024;2022-10-16T02:12:46;15.20;99.90
30889;DHT22;51092;50.874;7.024;2022-10-16T02:13:54;15.20;99.90
30889;DHT22;51092;50.874;7.024;2022-10-16T02:14:56;15.20;99.90
30889;DHT22;51092;50.874;7.024;2022-10-16T02:15:59;15.20;99.90
30889;DHT22;51092;50.874;7.024;2022-10-16T02:17:00;15.20;99.90
30889;DHT22;51092;50.874;7.024;2022-10-16T02:18:04;15.20;99.90
30889;DHT22;51092;50.874;7.024;2022-10-16T02:19:06;15.20;99.90
30889;DHT22;51092;50.874;7.024;2022-10-16T02:20:10;15.20;99.90
30889;DHT22;51092;50.874;7.024;2022-10-16T02:21:16;15.20;99.90
30889;DHT22;51092;50.874;7.024;2022-10-16T02:22:24;15.20;99.90
30889;DHT22;51092;50.874;7.024;2022-10-16T02:23:35;15.30;99.90
30889;DHT22;51092;50.874;7.024;2022-10-16T02:24:42;15.40;99.90
30889;DHT22;51092;50.874;7.024;2022-10-16T02:25:46;15.40;99.90
30889;DHT22;51092;50.874;7.024;2022-10-16T02:26:52;15.50;99.90
30889;DHT22;51092;50.874;7.024;2022-10-16T02:28:00;15.50;99.90
30889;DHT22;51092;50.874;7.024;2022-10-16T02:29:07;15.50;99.90
30889;DHT22;51092;50.874;7.024;2022-10-16T02:30:13;15.50;99.90
30889;DHT22;51092;50.874;7.024;2022-10-16T02:31:18;15.50;99.90
30889;DHT22;51092;50.874;7.024;2022-10-16T02:32:23;15.50;99.90
30889;DHT22;51092;50.874;7.024;2022-10-16T02:33:27;15.40;99.90
30889;DHT22;51092;50.874;7.024;2022-10-16T02:34:32;15.40;99.90
30889;DHT22;51092;50.874;7.024;2022-10-16T02:35:36;15.50;99.90
30889;DHT22;51092;50.874;7.024;2022-10-16T02:36:39;15.50;99.90
30889;DHT22;51092;50.874;7.024;2022-10-16T02:37:42;15.50;99.90
30889;DHT22;51092;50.874;7.024;2022-10-16T02:38:44;15.50;99.90
30889;DHT22;51092;50.874;7.024;2022-10-16T02:39:47;15.50;99.90
30889;DHT22;51092;50.874;7.024;2022-10-16T02:40:49;15.50;99.90
30889;DHT22;51092;50.874;7.024;2022-10-16T02:41:51;15.60;99.90
30889;DHT22;51092;50.874;7.024;2022-10-16T02:42:54;15.60;99.90
30889;DHT22;51092;50.874;7.024;2022-10-16T02:43:58;15.50;99.90
30889;DHT22;51092;50.874;7.024;2022-10-16T02:44:59;15.40;99.90
30889;DHT22;51092;50.874;7.024;2022-10-16T02:46:02;15.50;99.90
30889;DHT22;51092;50.874;7.024;2022-10-16T02:47:04;15.50;99.90
30889;DHT22;51092;50.874;7.024;2022-10-16T02:48:06;15.50;99.90
30889;DHT22;51092;50.874;7.024;2022-10-16T02:49:08;15.40;99.90
30889;DHT22;51092;50.874;7.024;2022-10-16T02:50:10;15.40;99.90
30889;DHT22;51092;50.874;7.024;2022-10-16T02:51:11;15.40;99.90
30889;DHT22;51092;50.874;7.024;2022-10-16T02:52:13;15.40;99.90
30889;DHT22;51092;50.874;7.024;2022-10-16T02:53:14;15.50;99.90
30889;DHT22;51092;50.874;7.024;2022-10-16T02:54:16;15.50;99.90
30889;DHT22;51092;50.874;7.024;2022-10-16T02:55:18;15.50;99.90
30889;DHT22;51092;50.874;7.024;2022-10-16T02:56:21;15.40;99.90
30889;DHT22;51092;50.874;7.024;2022-10-16T02:57:22;15.50;99.90
30889;DHT22;51092;50.874;7.024;2022-10-16T02:58:25;15.50;99.90
30889;DHT22;51092;50.874;7.024;2022-10-16T02:59:28;15.40;99.90
30889;DHT22;51092;50.874;7.024;2022-10-16T03:00:30;15.40;99.90
30889;DHT22;51092;50.874;7.024;2022-10-16T03:01:32;15.40;99.90
30889;DHT22;51092;50.874;7.024;2022-10-16T03:02:35;15.40;99.90
30889;DHT22;51092;50.874;7.024;2022-10-16T03:03:36;15.40;99.90
30889;DHT22;51092;50.874;7.024;2022-10-16T03:04:39;15.40;99.90
30889;DHT22;51092;50.874;7.024;2022-10-16T03:05:40;15.40;99.90
30889;DHT22;51092;50.874;7.024;2022-10-16T03:06:44;15.40;99.90
30889;DHT22;51092;50.874;7.024;2022-10-16T03:07:46;15.40;99.90
30889;DHT22;51092;50.874;7.024;2022-10-16T03:08:48;15.30;99.90
30889;DHT22;51092;50.874;7.024;2022-10-16T03:09:50;15.20;99.90
30889;DHT22;51092;50.874;7.024;2022-10-16T03:10:52;15.20;99.90
30889;DHT22;51092;50.874;7.024;2022-10-16T03:11:54;15.20;99.90
30889;DHT22;51092;50.874;7.024;2022-10-16T03:12:56;15.20;99.90
30889;DHT22;51092;50.874;7.024;2022-10-16T03:13:58;15.20;99.90
30889;DHT22;51092;50.874;7.024;2022-10-16T03:15:03;15.20;99.90
30889;DHT22;51092;50.874;7.024;2022-10-16T03:16:04;15.20;99.90
30889;DHT22;51092;50.874;7.024;2022-10-16T03:17:07;15.20;99.90
30889;DHT22;51092;50.874;7.024;2022-10-16T03:18:09;15.10;99.90
30889;DHT22;51092;50.874;7.024;2022-10-16T03:19:12;15.10;99.90
30889;DHT22;51092;50.874;7.024;2022-10-16T03:20:14;15.20;99.90
30889;DHT22;51092;50.874;7.024;2022-10-16T03:21:17;15.20;99.90
30889;DHT22;51092;50.874;7.024;2022-10-16T03:22:18;15.10;99.90
30889;DHT22;51092;50.874;7.024;2022-10-16T03:23:21;15.10;99.90
30889;DHT22;51092;50.874;7.024;2022-10-16T03:24:22;15.20;99.90
30889;DHT22;51092;50.874;7.024;2022-10-16T03:25:25;15.20;99.90
30889;DHT22;51092;50.874;7.024;2022-10-16T03:26:26;15.30;99.90
30889;DHT22;51092;50.874;7.024;2022-10-16T03:27:28;15.20;99.90
30889;DHT22;51092;50.874;7.024;2022-10-16T03:28:29;15.20;99.90
30889;DHT22;51092;50.874;7.024;2022-10-16T03:29:30;15.20;99.90
30889;DHT22;51092;50.874;7.024;2022-10-16T03:30:34;15.20;99.90
30889;DHT22;51092;50.874;7.024;2022-10-16T03:31:37;15.10;99.90
30889;DHT22;51092;50.874;7.024;2022-10-16T03:32:38;15.20;99.90
30889;DHT22;51092;50.874;7.024;2022-10-16T03:33:41;15.20;99.90
30889;DHT22;51092;50.874;7.024;2022-10-16T03:34:42;15.10;99.90
30889;DHT22;51092;50.874;7.024;2022-10-16T03:35:51;15.10;99.90
30889;DHT22;51092;50.874;7.024;2022-10-16T03:36:53;15.10;99.90
30889;DHT22;51092;50.874;7.024;2022-10-16T03:37:55;15.10;99.90
30889;DHT22;51092;50.874;7.024;2022-10-16T03:38:57;15.10;99.90
30889;DHT22;51092;50.874;7.024;2022-10-16T03:40:00;15.10;99.90
30889;DHT22;51092;50.874;7.024;2022-10-16T03:41:02;15.10;99.90
30889;DHT22;51092;50.874;7.024;2022-10-16T03:42:05;15.10;99.90
30889;DHT22;51092;50.874;7.024;2022-10-16T03:43:06;15.10;99.90
30889;DHT22;51092;50.874;7.024;2022-10-16T03:44:09;15.10;99.90
30889;DHT22;51092;50.874;7.024;2022-10-16T03:45:10;15.10;99.90
30889;DHT22;51092;50.874;7.024;2022-10-16T03:46:14;15.10;99.90
30889;DHT22;51092;50.874;7.024;2022-10-16T03:47:16;15.20;99.90
30889;DHT22;51092;50.874;7.024;2022-10-16T03:48:22;15.20;99.90
30889;DHT22;51092;50.874;7.024;2022-10-16T03:49:24;15.10;99.90
30889;DHT22;51092;50.874;7.024;2022-10-16T03:50:26;15.20;99.90
30889;DHT22;51092;50.874;7.024;2022-10-16T03:51:28;15.20;99.90
30889;DHT22;51092;50.874;7.024;2022-10-16T03:52:30;15.20;99.90
30889;DHT22;51092;50.874;7.024;2022-10-16T03:53:34;15.20;99.90
30889;DHT22;51092;50.874;7.024;2022-10-16T03:54:36;15.20;99.90
30889;DHT22;51092;50.874;7.024;2022-10-16T03:55:38;15.20;99.90
30889;DHT22;51092;50.874;7.024;2022-10-16T03:56:40;15.20;99.90
30889;DHT22;51092;50.874;7.024;2022-10-16T03:57:42;15.20;99.90
30889;DHT22;51092;50.874;7.024;2022-10-16T03:58:44;15.20;99.90
30889;DHT22;51092;50.874;7.024;2022-10-16T03:59:46;15.20;99.90
30889;DHT22;51092;50.874;7.024;2022-10-16T04:00:48;15.20;99.90
30889;DHT22;51092;50.874;7.024;2022-10-16T04:01:51;15.10;99.90
30889;DHT22;51092;50.874;7.024;2022-10-16T04:02:54;15.10;99.90
30889;DHT22;51092;50.874;7.024;2022-10-16T04:03:55;15.10;99.90
30889;DHT22;51092;50.874;7.024;2022-10-16T04:04:58;15.10;99.90
30889;DHT22;51092;50.874;7.024;2022-10-16T04:05:59;15.20;99.90
30889;DHT22;51092;50.874;7.024;2022-10-16T04:07:02;15.20;99.90
30889;DHT22;51092;50.874;7.024;2022-10-16T04:08:03;15.20;99.90
30889;DHT22;51092;50.874;7.024;2022-10-16T04:09:06;15.20;99.90
30889;DHT22;51092;50.874;7.024;2022-10-16T04:10:08;15.20;99.90
30889;DHT22;51092;50.874;7.024;2022-10-16T04:11:10;15.10;99.90
30889;DHT22;51092;50.874;7.024;2022-10-16T04:12:12;15.20;99.90
30889;DHT22;51092;50.874;7.024;2022-10-16T04:13:15;15.10;99.90
30889;DHT22;51092;50.874;7.024;2022-10-16T04:14:16;15.20;99.90
30889;DHT22;51092;50.874;7.024;2022-10-16T04:15:19;15.20;99.90
30889;DHT22;51092;50.874;7.024;2022-10-16T04:16:20;15.20;99.90
30889;DHT22;51092;50.874;7.024;2022-10-16T04:17:24;15.30;99.90
30889;DHT22;51092;50.874;7.024;2022-10-16T04:18:26;15.30;99.90
30889;DHT22;51092;50.874;7.024;2022-10-16T04:19:29;15.30;99.90
30889;DHT22;51092;50.874;7.024;2022-10-16T04:20:30;15.20;99.90
30889;DHT22;51092;50.874;7.024;2022-10-16T04:21:32;15.30;99.90
30889;DHT22;51092;50.874;7.024;2022-10-16T04:22:34;15.30;99.90
30889;DHT22;51092;50.874;7.024;2022-10-16T04:23:37;15.30;99.90
30889;DHT22;51092;50.874;7.024;2022-10-16T04:24:38;15.30;99.90
30889;DHT22;51092;50.874;7.024;2022-10-16T04:25:41;15.40;99.90
30889;DHT22;51092;50.874;7.024;2022-10-16T04:26:42;15.40;99.90
30889;DHT22;51092;50.874;7.024;2022-10-16T04:27:45;15.50;99.90
30889;DHT22;51092;50.874;7.024;2022-10-16T04:28:46;15.50;99.90
30889;DHT22;51092;50.874;7.024;2022-10-16T04:29:49;15.50;99.90
30889;DHT22;51092;50.874;7.024;2022-10-16T04:30:50;15.40;99.90
30889;DHT22;51092;50.874;7.024;2022-10-16T04:31:53;15.40;99.90
30889;DHT22;51092;50.874;7.024;2022-10-16T04:32:55;15.40;99.90
30889;DHT22;51092;50.874;7.024;2022-10-16T04:33:58;15.40;99.90
30889;DHT22;51092;50.874;7.024;2022-10-16T04:34:59;15.40;99.90
30889;DHT22;51092;50.874;7.024;2022-10-16T04:36:03;15.40;99.90
30889;DHT22;51092;50.874;7.024;2022-10-16T04:37:05;15.40;99.90
30889;DHT22;51092;50.874;7.024;2022-10-16T04:38:07;15.40;99.90
30889;DHT22;51092;50.874;7.024;2022-10-16T04:39:09;15.40;99.90
30889;DHT22;51092;50.874;7.024;2022-10-16T04:40:12;15.40;99.90
30889;DHT22;51092;50.874;7.024;2022-10-16T04:41:14;15.40;99.90
30889;DHT22;51092;50.874;7.024;2022-10-16T04:42:16;15.40;99.90
30889;DHT22;51092;50.874;7.024;2022-10-16T04:43:18;15.40;99.90
30889;DHT22;51092;50.874;7.024;2022-10-16T04:44:21;15.40;99.90
30889;DHT22;51092;50.874;7.024;2022-10-16T04:45:23;15.50;99.90
30889;DHT22;51092;50.874;7.024;2022-10-16T04:46:26;15.50;99.90
30889;DHT22;51092;50.874;7.024;2022-10-16T04:47:27;15.60;99.90
30889;DHT22;51092;50.874;7.024;2022-10-16T04:48:31;15.50;99.90
30889;DHT22;51092;50.874;7.024;2022-10-16T04:49:33;15.50;99.90
30889;DHT22;51092;50.874;7.024;2022-10-16T04:50:35;15.50;99.90
30889;DHT22;51092;50.874;7.024;2022-10-16T04:51:37;15.50;99.90
30889;DHT22;51092;50.874;7.024;2022-10-16T04:52:39;15.50;99.90
30889;DHT22;51092;50.874;7.024;2022-10-16T04:53:41;15.50;99.90
30889;DHT22;51092;50.874;7.024;2022-10-16T04:54:43;15.50;99.90
30889;DHT22;51092;50.874;7.024;2022-10-16T04:55:46;15.50;99.90
30889;DHT22;51092;50.874;7.024;2022-10-16T04:56:48;15.50;99.90
30889;DHT22;51092;50.874;7.024;2022-10-16T04:57:52;15.50;99.90
30889;DHT22;51092;50.874;7.024;2022-10-16T04:58:54;15.40;99.90
30889;DHT22;51092;50.874;7.024;2022-10-16T04:59:56;15.40;99.90
30889;DHT22;51092;50.874;7.024;2022-10-16T05:00:58;15.30;99.90
30889;DHT22;51092;50.874;7.024;2022-10-16T05:02:00;15.40;99.90
30889;DHT22;51092;50.874;7.024;2022-10-16T05:03:02;15.40;99.90
30889;DHT22;51092;50.874;7.024;2022-10-16T05:04:08;15.40;99.90
30889;DHT22;51092;50.874;7.024;2022-10-16T05:05:11;15.40;99.90
30889;DHT22;51092;50.874;7.024;2022-10-16T05:06:12;15.40;99.90
30889;DHT22;51092;50.874;7.024;2022-10-16T05:07:15;15.40;99.90
30889;DHT22;51092;50.874;7.024;2022-10-16T05:08:17;15.40;99.90
30889;DHT22;51092;50.874;7.024;2022-10-16T05:09:20;15.40;99.90
30889;DHT22;51092;50.874;7.024;2022-10-16T05:10:21;15.40;99.90
30889;DHT22;51092;50.874;7.024;2022-10-16T05:11:24;15.40;99.90
30889;DHT22;51092;50.874;7.024;2022-10-16T05:12:25;15.40;99.90
30889;DHT22;51092;50.874;7.024;2022-10-16T05:13:28;15.30;99.90
30889;DHT22;51092;50.874;7.024;2022-10-16T05:14:29;15.30;99.90
30889;DHT22;51092;50.874;7.024;2022-10-16T05:15:32;15.30;99.90
30889;DHT22;51092;50.874;7.024;2022-10-16T05:16:33;15.30;99.90
30889;DHT22;51092;50.874;7.024;2022-10-16T05:17:36;15.40;99.90
30889;DHT22;51092;50.874;7.024;2022-10-16T05:18:38;15.40;99.90
30889;DHT22;51092;50.874;7.024;2022-10-16T05:19:42;15.50;99.90
30889;DHT22;51092;50.874;7.024;2022-10-16T05:20:43;15.40;99.90
30889;DHT22;51092;50.874;7.024;2022-10-16T05:21:46;15.50;99.90
30889;DHT22;51092;50.874;7.024;2022-10-16T05:22:47;15.50;99.90
30889;DHT22;51092;50.874;7.024;2022-10-16T05:23:49;15.50;99.90
30889;DHT22;51092;50.874;7.024;2022-10-16T05:24:51;15.50;99.90
30889;DHT22;51092;50.874;7.024;2022-10-16T05:25:54;15.50;99.90
30889;DHT22;51092;50.874;7.024;2022-10-16T05:26:56;15.50;99.90
30889;DHT22;51092;50.874;7.024;2022-10-16T05:27:58;15.40;99.90
30889;DHT22;51092;50.874;7.024;2022-10-16T05:29:00;15.40;99.90
30889;DHT22;51092;50.874;7.024;2022-10-16T05:30:05;15.40;99.90
30889;DHT22;51092;50.874;7.024;2022-10-16T05:31:07;15.40;99.90
30889;DHT22;51092;50.874;7.024;2022-10-16T05:32:10;15.40;99.90
30889;DHT22;51092;50.874;7.024;2022-10-16T05:33:12;15.40;99.90
30889;DHT22;51092;50.874;7.024;2022-10-16T05:34:14;15.40;99.90
30889;DHT22;51092;50.874;7.024;2022-10-16T05:35:18;15.50;99.90
30889;DHT22;51092;50.874;7.024;2022-10-16T05:36:21;15.40;99.90
30889;DHT22;51092;50.874;7.024;2022-10-16T05:37:22;15.40;99.90
30889;DHT22;51092;50.874;7.024;2022-10-16T05:38:25;15.40;99.90
30889;DHT22;51092;50.874;7.024;2022-10-16T05:39:26;15.40;99.90
30889;DHT22;51092;50.874;7.024;2022-10-16T05:40:29;15.40;99.90
30889;DHT22;51092;50.874;7.024;2022-10-16T05:41:30;15.40;99.90
30889;DHT22;51092;50.874;7.024;2022-10-16T05:42:32;15.40;99.90
30889;DHT22;51092;50.874;7.024;2022-10-16T05:43:33;15.40;99.90
30889;DHT22;51092;50.874;7.024;2022-10-16T05:44:35;15.40;99.90
30889;DHT22;51092;50.874;7.024;2022-10-16T05:45:36;15.40;99.90
30889;DHT22;51092;50.874;7.024;2022-10-16T05:46:38;15.40;99.90
30889;DHT22;51092;50.874;7.024;2022-10-16T05:47:40;15.40;99.90
30889;DHT22;51092;50.874;7.024;2022-10-16T05:48:43;15.40;99.90
30889;DHT22;51092;50.874;7.024;2022-10-16T05:49:44;15.40;99.90
30889;DHT22;51092;50.874;7.024;2022-10-16T05:50:48;15.40;99.90
30889;DHT22;51092;50.874;7.024;2022-10-16T05:51:50;15.40;99.90
30889;DHT22;51092;50.874;7.024;2022-10-16T05:52:52;15.30;99.90
30889;DHT22;51092;50.874;7.024;2022-10-16T05:53:54;15.40;99.90
30889;DHT22;51092;50.874;7.024;2022-10-16T05:54:56;15.40;99.90
30889;DHT22;51092;50.874;7.024;2022-10-16T05:55:58;15.30;99.90
30889;DHT22;51092;50.874;7.024;2022-10-16T05:57:00;15.30;99.90
30889;DHT22;51092;50.874;7.024;2022-10-16T05:58:01;15.30;99.90
30889;DHT22;51092;50.874;7.024;2022-10-16T05:59:03;15.30;99.90
30889;DHT22;51092;50.874;7.024;2022-10-16T06:00:05;15.30;99.90
30889;DHT22;51092;50.874;7.024;2022-10-16T06:01:11;15.20;99.90
30889;DHT22;51092;50.874;7.024;2022-10-16T06:02:13;15.30;99.90
30889;DHT22;51092;50.874;7.024;2022-10-16T06:03:15;15.30;99.90
30889;DHT22;51092;50.874;7.024;2022-10-16T06:04:17;15.30;99.90
30889;DHT22;51092;50.874;7.024;2022-10-16T06:05:19;15.30;99.90
30889;DHT22;51092;50.874;7.024;2022-10-16T06:06:22;15.30;99.90
30889;DHT22;51092;50.874;7.024;2022-10-16T06:07:26;15.30;99.90
30889;DHT22;51092;50.874;7.024;2022-10-16T06:08:27;15.30;99.90
30889;DHT22;51092;50.874;7.024;2022-10-16T06:09:29;15.20;99.90
30889;DHT22;51092;50.874;7.024;2022-10-16T06:10:31;15.30;99.90
30889;DHT22;51092;50.874;7.024;2022-10-16T06:11:34;15.30;99.90
30889;DHT22;51092;50.874;7.024;2022-10-16T06:12:35;15.30;99.90
30889;DHT22;51092;50.874;7.024;2022-10-16T06:13:37;15.20;99.90
30889;DHT22;51092;50.874;7.024;2022-10-16T06:14:40;15.20;99.90
30889;DHT22;51092;50.874;7.024;2022-10-16T06:15:42;15.20;99.90
30889;DHT22;51092;50.874;7.024;2022-10-16T06:16:43;15.10;99.90
30889;DHT22;51092;50.874;7.024;2022-10-16T06:17:46;15.10;99.90
30889;DHT22;51092;50.874;7.024;2022-10-16T06:18:47;15.10;99.90
30889;DHT22;51092;50.874;7.024;2022-10-16T06:19:50;15.20;99.90
30889;DHT22;51092;50.874;7.024;2022-10-16T06:20:51;15.20;99.90
30889;DHT22;51092;50.874;7.024;2022-10-16T06:21:55;15.20;99.90
30889;DHT22;51092;50.874;7.024;2022-10-16T06:22:59;15.10;99.90
30889;DHT22;51092;50.874;7.024;2022-10-16T06:24:01;15.20;99.90
30889;DHT22;51092;50.874;7.024;2022-10-16T06:25:04;15.20;99.90
30889;DHT22;51092;50.874;7.024;2022-10-16T06:26:07;15.20;99.90
30889;DHT22;51092;50.874;7.024;2022-10-16T06:27:09;15.10;99.90
30889;DHT22;51092;50.874;7.024;2022-10-16T06:28:13;15.10;99.90
30889;DHT22;51092;50.874;7.024;2022-10-16T06:29:16;15.10;99.90
30889;DHT22;51092;50.874;7.024;2022-10-16T06:30:18;15.10;99.90
30889;DHT22;51092;50.874;7.024;2022-10-16T06:31:20;15.10;99.90
30889;DHT22;51092;50.874;7.024;2022-10-16T06:32:22;15.10;99.90
30889;DHT22;51092;50.874;7.024;2022-10-16T06:33:22;15.10;99.90
30889;DHT22;51092;50.874;7.024;2022-10-16T06:34:24;15.20;99.90
30889;DHT22;51092;50.874;7.024;2022-10-16T06:35:26;15.10;99.90
30889;DHT22;51092;50.874;7.024;2022-10-16T06:36:28;15.10;99.90
30889;DHT22;51092;50.874;7.024;2022-10-16T06:37:32;15.20;99.90
30889;DHT22;51092;50.874;7.024;2022-10-16T06:38:34;15.20;99.90
30889;DHT22;51092;50.874;7.024;2022-10-16T06:39:37;15.20;99.90